TimeMST,TemperatureF,Dew PointF,Humidity,Sea Level PressureIn,VisibilityMPH,Wind Direction,Wind SpeedMPH,Gust SpeedMPH,PrecipitationIn,Events,Conditions,WindDirDegrees,DateUTC
12:15 AM,28.4,26.6,93,29.74,10.0,NNW,3.5,-,N/A,,Overcast,340,2012-12-24 07:15:00
12:35 AM,28.4,26.6,93,29.74,10.0,NNW,3.5,-,N/A,,Overcast,340,2012-12-24 07:35:00
12:55 AM,28.4,26.6,93,29.73,10.0,Calm,Calm,-,N/A,,Overcast,0,2012-12-24 07:55:00
1:15 AM,28.4,26.6,93,29.73,10.0,Calm,Calm,-,N/A,,Overcast,0,2012-12-24 08:15:00
1:35 AM,28.4,26.6,93,29.73,10.0,Calm,Calm,-,N/A,,Overcast,0,2012-12-24 08:35:00
1:55 AM,28.4,26.6,93,29.73,1.5,NNW,3.5,-,N/A,,Overcast,330,2012-12-24 08:55:00
2:15 AM,28.4,26.6,93,29.73,4.0,NNW,6.9,-,N/A,,Overcast,330,2012-12-24 09:15:00
2:35 AM,28.4,26.6,93,29.73,4.0,NW,4.6,-,N/A,Snow,Light Snow,320,2012-12-24 09:35:00
2:55 AM,28.4,26.6,93,29.72,1.2,NW,3.5,-,N/A,Snow,Light Snow,320,2012-12-24 09:55:00
3:15 AM,26.6,26.6,100,29.73,1.0,NNW,5.8,-,N/A,Snow,Light Snow,340,2012-12-24 10:15:00
3:35 AM,26.6,26.6,100,29.72,4.0,NNW,4.6,-,N/A,Snow,Light Snow,340,2012-12-24 10:35:00
3:55 AM,26.6,26.6,100,29.72,10.0,NW,4.6,-,N/A,,Overcast,310,2012-12-24 10:55:00
4:15 AM,28.4,26.6,93,29.72,10.0,NNW,4.6,-,N/A,,Overcast,340,2012-12-24 11:15:00
4:35 AM,28.4,26.6,93,29.72,10.0,NNW,5.8,-,N/A,,Overcast,330,2012-12-24 11:35:00
5:15 AM,28.4,26.6,93,29.71,10.0,Calm,Calm,-,N/A,,Overcast,0,2012-12-24 12:15:00
5:35 AM,28.4,26.6,93,29.71,10.0,NW,3.5,-,N/A,,Overcast,320,2012-12-24 12:35:00
5:55 AM,28.4,26.6,93,29.72,10.0,NW,3.5,-,N/A,,Overcast,320,2012-12-24 12:55:00
6:47 AM,26.6,24.8,93,29.73,10.0,Calm,Calm,-,N/A,,Overcast,0,2012-12-24 13:47:00
7:47 AM,26.6,24.8,93,29.75,5.0,Calm,Calm,-,N/A,,Overcast,0,2012-12-24 14:47:00
8:50 AM,26.6,23.0,86,29.78,10.0,NNW,3.5,-,N/A,,Mostly Cloudy,330,2012-12-24 15:50:00
9:47 AM,24.8,21.2,86,29.80,10.0,WNW,6.9,-,N/A,,Scattered Clouds,300,2012-12-24 16:47:00
10:50 AM,26.6,21.2,80,29.83,10.0,WNW,3.5,-,N/A,,Scattered Clouds,300,2012-12-24 17:50:00
11:47 AM,28.4,19.4,69,29.83,10.0,WNW,3.5,-,N/A,,Scattered Clouds,300,2012-12-24 18:47:00
12:47 PM,30.2,12.2,47,29.82,10.0,NW,12.7,20.7,N/A,,Scattered Clouds,310,2012-12-24 19:47:00
1:55 PM,32.0,12.2,44,29.82,10.0,WNW,15.0,-,N/A,,Scattered Clouds,300,2012-12-24 20:55:00
2:47 PM,32.0,12.2,44,29.83,10.0,WNW,15.0,-,N/A,,Scattered Clouds,300,2012-12-24 21:47:00
3:47 PM,30.2,12.2,47,29.87,10.0,NW,9.2,-,N/A,,Partly Cloudy,310,2012-12-24 22:47:00
4:50 PM,39.2,12.2,33,29.91,10.0,NW,8.1,-,N/A,,Scattered Clouds,320,2012-12-24 23:50:00
5:47 PM,24.8,10.4,54,29.94,10.0,NW,6.9,-,N/A,,Clear,320,2012-12-25 00:47:00
7:47 PM,19.4,10.4,68,30.01,10.0,NW,6.9,-,N/A,,Clear,310,2012-12-25 02:47:00
8:47 PM,19.4,10.4,68,30.02,10.0,West,8.1,-,N/A,,Clear,270,2012-12-25 03:47:00
9:47 PM,17.6,10.4,73,30.04,10.0,WNW,6.9,-,N/A,,Clear,300,2012-12-25 04:47:00
10:15 PM,15.8,10.4,79,30.05,10.0,NW,8.1,-,N/A,,Clear,310,2012-12-25 05:15:00
10:35 PM,15.8,10.4,79,30.06,10.0,NNW,8.1,-,N/A,,Clear,330,2012-12-25 05:35:00
10:47 PM,15.8,8.6,73,30.06,10.0,NW,6.9,-,N/A,,Clear,310,2012-12-25 05:47:00
10:55 PM,15.8,10.4,79,30.06,10.0,NW,10.4,-,N/A,,Clear,310,2012-12-25 05:55:00
11:15 PM,14.0,10.4,86,30.07,10.0,NW,11.5,-,N/A,,Clear,310,2012-12-25 06:15:00
11:35 PM,14.0,8.6,79,30.07,10.0,NW,10.4,-,N/A,,Clear,320,2012-12-25 06:35:00
11:55 PM,14.0,8.6,79,30.08,10.0,NNW,11.5,-,N/A,,Clear,330,2012-12-25 06:55:00